createdAt,value
2023-02-03T00:00:52.493Z,98379.58
2023-02-03T00:03:31.414Z,98385.42
2023-02-03T00:06:03.453Z,98387.15
2023-02-03T00:08:34.602Z,98381.77
2023-02-03T00:11:06.304Z,98379.97
2023-02-03T00:13:35.339Z,98378.87
2023-02-03T00:16:13.354Z,98375.55
2023-02-03T00:18:43.353Z,98376.46
2023-02-03T00:21:15.292Z,98381.86
2023-02-03T00:23:44.112Z,98386.33
2023-02-03T00:26:17.594Z,98386.27
2023-02-03T00:28:50.798Z,98387.33
2023-02-03T00:31:21.994Z,98388.08
2023-02-03T00:33:56.239Z,98388.00
2023-02-03T00:36:26.332Z,98383.59
2023-02-03T00:38:55.035Z,98382.69
2023-02-03T00:41:28.766Z,98385.11
2023-02-03T00:43:59.726Z,98385.05
2023-02-03T00:46:28.341Z,98385.77
2023-02-03T00:48:57.814Z,98385.63
2023-02-03T00:51:26.288Z,98389.31
2023-02-03T00:53:56.217Z,98388.13
2023-02-03T00:56:27.745Z,98389.27
2023-02-03T00:59:09.381Z,98389.63
2023-02-03T01:01:37.920Z,98390.08
2023-02-03T01:04:09.476Z,98388.22
2023-02-03T01:06:37.985Z,98390.17
2023-02-03T01:09:06.805Z,98392.52
2023-02-03T01:11:37.001Z,98384.94
2023-02-03T01:14:09.485Z,98386.98
2023-02-03T01:16:38.805Z,98389.67
2023-02-03T01:19:11.321Z,98391.81
2023-02-03T01:21:40.761Z,98394.50
2023-02-03T01:24:12.474Z,98398.96
2023-02-03T01:26:54.825Z,98403.36
2023-02-03T01:29:23.476Z,98409.14
2023-02-03T01:31:53.846Z,98410.20
2023-02-03T01:34:28.655Z,98406.61
2023-02-03T01:36:58.507Z,98401.76
2023-02-03T01:39:30.269Z,98401.88
2023-02-03T01:41:59.087Z,98397.25
2023-02-03T01:44:46.084Z,98398.41
2023-02-03T01:47:29.762Z,98397.59
2023-02-03T01:50:04.585Z,98395.97
2023-02-03T01:52:34.260Z,98401.34
2023-02-03T01:55:07.849Z,98402.06
2023-02-03T01:58:02.980Z,98400.06
2023-02-03T02:00:31.946Z,98404.46
2023-02-03T02:03:07.381Z,98403.48
2023-02-03T02:05:43.670Z,98400.73
2023-02-03T02:08:18.186Z,98401.20
2023-02-03T02:10:47.119Z,98401.74
2023-02-03T02:13:17.988Z,98407.10
2023-02-03T02:15:47.259Z,98408.30
2023-02-03T02:18:25.334Z,98413.45
2023-02-03T02:20:53.923Z,98413.05
2023-02-03T02:23:52.725Z,98416.11
2023-02-03T02:26:33.425Z,98416.90
2023-02-03T02:29:12.418Z,98415.20
2023-02-03T02:32:07.151Z,98413.63
2023-02-03T02:34:51.014Z,98415.05
2023-02-03T02:37:24.707Z,98420.41
2023-02-03T02:40:07.462Z,98424.67
2023-02-03T02:42:57.135Z,98428.34
2023-02-03T02:45:50.714Z,98430.35
2023-02-03T02:48:32.553Z,98429.20
2023-02-03T02:51:04.092Z,98427.65
2023-02-03T02:53:47.310Z,98433.23
2023-02-03T02:56:19.075Z,98435.32
2023-02-03T02:58:51.010Z,98442.76
2023-02-03T03:01:19.950Z,98448.55
2023-02-03T03:03:49.005Z,98450.49
2023-02-03T03:06:33.547Z,98450.48
2023-02-03T03:09:41.887Z,98455.30
2023-02-03T03:12:48.281Z,98458.58
2023-02-03T03:15:28.425Z,98469.31
2023-02-03T03:18:07.402Z,98471.74
2023-02-03T03:20:47.889Z,98476.65
2023-02-03T03:23:32.139Z,98478.48
2023-02-03T03:26:27.999Z,98478.83
2023-02-03T03:29:13.486Z,98480.92
2023-02-03T03:31:42.677Z,98489.09
2023-02-03T03:34:14.995Z,98493.40
2023-02-03T03:37:10.551Z,98491.64
2023-02-03T03:39:50.213Z,98494.77
2023-02-03T03:42:33.193Z,98499.31
2023-02-03T03:45:07.543Z,98502.02
2023-02-03T03:47:45.221Z,98499.17
2023-02-03T03:50:21.091Z,98505.10
2023-02-03T03:52:52.318Z,98508.09
2023-02-03T03:55:21.177Z,98501.58
2023-02-03T03:57:59.617Z,98503.52
2023-02-03T04:00:31.286Z,98506.79
2023-02-03T04:03:08.957Z,98512.80
2023-02-03T04:05:40.882Z,98517.38
2023-02-03T04:08:09.768Z,98513.35
2023-02-03T04:10:40.930Z,98511.23
2023-02-03T04:13:11.501Z,98511.98
2023-02-03T04:15:39.787Z,98517.59
2023-02-03T04:18:08.544Z,98522.66
2023-02-03T04:20:37.006Z,98531.46
2023-02-03T04:23:06.915Z,98535.63
2023-02-03T04:25:35.603Z,98535.46
2023-02-03T04:28:03.985Z,98530.56
2023-02-03T04:30:32.340Z,98532.03
2023-02-03T04:33:00.660Z,98541.09
2023-02-03T04:35:28.979Z,98543.56
2023-02-03T04:37:58.621Z,98540.61
2023-02-03T04:40:27.285Z,98543.30
2023-02-03T04:42:55.841Z,98551.89
2023-02-03T04:45:24.177Z,98548.91
2023-02-03T04:47:54.724Z,98546.89
2023-02-03T04:50:24.377Z,98546.27
2023-02-03T04:52:52.736Z,98551.58
2023-02-03T04:55:20.906Z,98553.34
2023-02-03T04:57:49.187Z,98555.57
2023-02-03T05:00:17.601Z,98560.10
2023-02-03T05:02:45.894Z,98567.29
2023-02-03T05:05:14.288Z,98570.08
2023-02-03T05:07:42.828Z,98575.08
2023-02-03T05:10:12.411Z,98582.77
2023-02-03T05:12:40.560Z,98584.63
2023-02-03T05:15:09.411Z,98585.38
2023-02-03T05:17:40.140Z,98587.02
2023-02-03T05:20:09.354Z,98591.36
2023-02-03T05:22:37.659Z,98593.14
2023-02-03T05:25:06.328Z,98593.88
2023-02-03T05:27:34.332Z,98595.15
2023-02-03T05:30:22.423Z,98594.56
2023-02-03T05:32:50.695Z,98595.40
2023-02-03T05:35:26.390Z,98596.27
2023-02-03T05:37:54.689Z,98598.09
2023-02-03T05:40:41.377Z,98605.58
2023-02-03T05:43:12.790Z,98609.09
2023-02-03T05:45:41.186Z,98616.95
2023-02-03T05:48:09.804Z,98618.98
2023-02-03T05:50:38.949Z,98624.23
2023-02-03T05:53:12.411Z,98631.17
2023-02-03T05:55:43.017Z,98639.92
2023-02-03T05:58:11.413Z,98648.81
2023-02-03T06:00:41.695Z,98658.15
2023-02-03T06:03:10.213Z,98659.59
2023-02-03T06:05:41.095Z,98659.89
2023-02-03T06:08:09.684Z,98660.53
2023-02-03T06:10:37.897Z,98649.39
2023-02-03T06:13:14.497Z,98649.46
2023-02-03T06:15:45.361Z,98655.39
2023-02-03T06:18:41.923Z,98658.86
2023-02-03T06:21:12.557Z,98661.30
2023-02-03T06:23:56.952Z,98660.73
2023-02-03T06:27:15.183Z,98644.77
2023-02-03T06:39:11.457Z,98650.23
2023-02-03T06:46:06.091Z,98671.69
2023-02-03T06:53:00.409Z,98675.07
2023-02-03T06:55:30.128Z,98679.92
2023-02-03T06:58:23.116Z,98681.77
2023-02-03T07:33:26.353Z,98689.53
2023-02-03T07:35:58.894Z,98693.50
2023-02-03T07:38:32.921Z,98695.73
2023-02-03T07:41:04.172Z,98693.52
2023-02-03T07:43:32.139Z,98688.30
2023-02-03T07:45:59.107Z,98690.17
2023-02-03T07:48:25.996Z,98688.38
2023-02-03T07:50:56.841Z,98689.27
2023-02-03T07:53:24.003Z,98689.20
2023-02-03T07:55:51.106Z,98687.29
2023-02-03T07:58:19.586Z,98686.25
2023-02-03T08:00:46.750Z,98684.78
2023-02-03T08:03:13.793Z,98680.70
2023-02-03T08:05:41.696Z,98675.75
2023-02-03T08:08:10.042Z,98675.29
2023-02-03T08:10:36.964Z,98674.28
2023-02-03T08:13:03.825Z,98675.63
2023-02-03T08:15:33.368Z,98681.50
2023-02-03T08:18:00.292Z,98678.77
2023-02-03T08:20:27.562Z,98684.66
2023-02-03T08:22:54.634Z,98688.88
2023-02-03T08:25:22.721Z,98688.98
2023-02-03T08:27:49.853Z,98693.84
2023-02-03T08:30:18.720Z,98703.00
2023-02-03T08:32:46.230Z,98699.60
2023-02-03T08:35:13.276Z,98700.70
2023-02-03T08:37:41.757Z,98705.06
2023-02-03T08:40:09.903Z,98709.04
2023-02-03T08:42:37.151Z,98712.63
2023-02-03T08:45:05.929Z,98715.64
2023-02-03T08:47:32.868Z,98712.31
2023-02-03T08:50:24.556Z,98707.25
2023-02-03T08:52:52.835Z,98712.10
2023-02-03T08:55:22.220Z,98710.30
2023-02-03T08:57:50.527Z,98711.04
2023-02-03T09:00:18.153Z,98713.19
2023-02-03T09:02:44.991Z,98711.88
2023-02-03T09:05:12.114Z,98712.58
2023-02-03T09:07:39.202Z,98715.18
2023-02-03T09:10:06.473Z,98711.38
2023-02-03T09:12:33.532Z,98706.02
2023-02-03T09:15:20.642Z,98709.45
2023-02-03T09:18:10.692Z,98710.52
2023-02-03T09:20:37.748Z,98710.42
2023-02-03T09:23:08.667Z,98711.55
2023-02-03T09:25:35.677Z,98709.07
2023-02-03T09:28:05.536Z,98706.41
2023-02-03T09:30:49.316Z,98710.84
2023-02-03T09:33:16.382Z,98709.92
2023-02-03T09:35:52.396Z,98704.16
2023-02-03T09:38:20.323Z,98701.80
2023-02-03T09:41:16.990Z,98700.96
2023-02-03T09:43:52.974Z,98693.15
2023-02-03T09:46:27.798Z,98686.94
2023-02-03T09:49:02.762Z,98689.58
2023-02-03T09:51:51.760Z,98688.75
2023-02-03T09:54:18.870Z,98683.17
2023-02-03T09:56:55.094Z,98680.28
2023-02-03T09:59:23.000Z,98681.89
2023-02-03T10:02:21.605Z,98683.45
2023-02-03T10:05:01.096Z,98681.80
2023-02-03T10:08:27.035Z,98676.60
2023-02-03T10:11:26.269Z,98675.36
2023-02-03T10:14:23.736Z,98671.54
2023-02-03T10:28:10.374Z,98661.83
2023-02-03T10:30:47.036Z,98656.22
2023-02-03T10:33:44.074Z,98659.45
2023-02-03T10:36:43.779Z,98657.83
2023-02-03T10:39:27.329Z,98658.28
2023-02-03T10:42:20.219Z,98658.13
2023-02-03T10:45:31.334Z,98649.58
2023-02-03T10:48:48.223Z,98646.16
2023-02-03T10:51:49.907Z,98647.13
2023-02-03T10:54:34.768Z,98641.83
2023-02-03T10:57:06.661Z,98636.91
2023-02-03T11:00:10.833Z,98638.20
2023-02-03T11:03:22.472Z,98639.79
2023-02-03T11:06:12.970Z,98633.38
2023-02-03T11:08:45.696Z,98631.77
2023-02-03T11:11:31.628Z,98624.94
2023-02-03T11:14:02.636Z,98619.80
2023-02-03T11:16:34.955Z,98617.45
2023-02-03T11:19:27.835Z,98615.51
2023-02-03T11:21:57.059Z,98615.52
2023-02-03T11:24:33.055Z,98623.90
2023-02-03T11:27:06.161Z,98620.89
2023-02-03T11:29:37.316Z,98621.89
2023-02-03T11:32:17.799Z,98625.44
2023-02-03T11:34:55.628Z,98625.73
2023-02-03T11:37:55.077Z,98625.14
2023-02-03T11:40:40.161Z,98619.98
2023-02-03T11:43:33.624Z,98616.23
2023-02-03T11:46:08.625Z,98614.33
2023-02-03T11:49:05.418Z,98614.91
2023-02-03T11:52:00.301Z,98611.63
2023-02-03T11:54:48.779Z,98611.98
2023-02-03T11:57:47.463Z,98609.52
2023-02-03T12:00:56.676Z,98605.20
2023-02-03T12:03:55.630Z,98598.22
2023-02-03T12:06:57.167Z,98593.23
2023-02-03T12:09:31.034Z,98592.50
2023-02-03T12:12:12.760Z,98588.95
2023-02-03T12:14:51.578Z,98594.67
2023-02-03T12:17:31.952Z,98599.56
2023-02-03T12:20:32.413Z,98592.84
2023-02-03T12:23:15.541Z,98590.09
2023-02-03T12:26:23.730Z,98588.95
2023-02-03T12:29:15.020Z,98585.69
2023-02-03T12:32:05.910Z,98582.68
2023-02-03T12:34:46.956Z,98585.23
2023-02-03T12:37:25.377Z,98585.86
2023-02-03T12:39:54.562Z,98583.19
2023-02-03T12:42:36.799Z,98583.19
2023-02-03T12:45:19.179Z,98575.55
2023-02-03T12:48:01.310Z,98570.64
2023-02-03T12:50:36.900Z,98569.42
2023-02-03T12:53:18.045Z,98567.27
2023-02-03T12:56:01.192Z,98565.30
2023-02-03T12:58:44.708Z,98566.90
2023-02-03T13:01:21.391Z,98566.93
2023-02-03T13:04:22.505Z,98566.66
2023-02-03T13:07:04.151Z,98565.94
2023-02-03T13:09:40.215Z,98564.85
2023-02-03T13:12:13.939Z,98561.86
2023-02-03T13:14:50.989Z,98565.60
2023-02-03T13:17:25.772Z,98566.88
2023-02-03T13:20:00.784Z,98562.31
2023-02-03T13:22:29.063Z,98563.27
2023-02-03T13:25:01.864Z,98563.95
2023-02-03T13:28:14.432Z,98563.16
2023-02-03T13:30:57.678Z,98565.38
2023-02-03T13:33:55.742Z,98558.17
2023-02-03T13:36:54.294Z,98551.08
2023-02-03T13:40:21.015Z,98551.65
2023-02-03T13:42:57.799Z,98553.71
2023-02-03T13:45:38.262Z,98552.91
2023-02-03T13:48:13.808Z,98553.64
2023-02-03T13:50:42.755Z,98554.47
2023-02-03T13:53:23.633Z,98553.40
2023-02-03T13:56:03.670Z,98545.43
2023-02-03T13:58:38.054Z,98538.94
2023-02-03T14:01:33.969Z,98533.27
2023-02-03T14:16:25.463Z,98528.34
2023-02-03T14:19:04.915Z,98526.33
2023-02-03T14:30:12.691Z,98511.77
2023-02-03T14:45:33.872Z,98506.21
2023-02-03T15:00:56.984Z,98487.33
2023-02-03T15:07:46.416Z,98484.41
2023-02-03T15:10:51.935Z,98480.98
2023-02-03T15:17:38.854Z,98476.15
2023-02-03T15:20:25.403Z,98469.75
2023-02-03T15:31:32.542Z,98471.40
2023-02-03T16:02:44.327Z,98444.23
2023-02-03T16:13:46.203Z,98444.48
2023-02-03T16:17:05.411Z,98440.82
2023-02-03T16:23:53.009Z,98438.60
2023-02-03T16:26:47.759Z,98434.33
2023-02-03T16:42:20.714Z,98397.16
2023-02-03T16:53:32.062Z,98371.93
2023-02-03T17:04:00.526Z,98362.48
2023-02-03T17:10:48.678Z,98359.30
2023-02-03T17:14:03.289Z,98358.21
2023-02-03T17:20:49.138Z,98359.36
2023-02-03T17:36:12.298Z,98355.27
2023-02-03T18:02:37.504Z,98337.58
2023-02-03T18:09:26.246Z,98331.20
2023-02-03T18:16:16.322Z,98317.80
2023-02-03T18:27:37.353Z,98307.02
2023-02-03T18:38:43.458Z,98294.98
2023-02-03T18:49:14.557Z,98278.02
2023-02-03T19:00:33.370Z,98262.03
2023-02-03T19:07:21.358Z,98253.89
2023-02-03T19:14:12.443Z,98241.52
2023-02-03T19:17:15.467Z,98234.80
2023-02-03T19:24:05.882Z,98229.08
2023-02-03T19:39:13.475Z,98196.80
2023-02-03T19:46:04.576Z,98188.54
2023-02-03T20:04:30.616Z,98190.20
2023-02-03T20:06:58.894Z,98189.70
2023-02-03T20:09:27.243Z,98181.23
2023-02-03T20:11:56.698Z,98178.81
2023-02-03T20:14:25.576Z,98174.96
2023-02-03T20:16:57.004Z,98173.42
2023-02-03T20:19:26.381Z,98177.91
2023-02-03T20:21:54.757Z,98176.55
2023-02-03T20:24:25.102Z,98179.31
2023-02-03T20:26:53.209Z,98182.45
2023-02-03T20:29:21.353Z,98174.30
2023-02-03T20:31:53.081Z,98168.58
2023-02-03T20:34:22.400Z,98161.45
2023-02-03T20:36:50.685Z,98154.55
2023-02-03T20:39:20.551Z,98148.17
2023-02-03T20:41:49.901Z,98137.91
2023-02-03T20:44:18.586Z,98136.17
2023-02-03T20:46:47.112Z,98127.06
2023-02-03T20:49:20.793Z,98127.09
2023-02-03T20:51:49.358Z,98126.89
2023-02-03T20:54:24.081Z,98130.93
2023-02-03T20:56:55.776Z,98126.48
2023-02-03T20:59:25.543Z,98126.20
2023-02-03T21:01:54.132Z,98123.61
2023-02-03T21:04:40.845Z,98125.60
2023-02-03T21:07:14.257Z,98120.20
2023-02-03T21:09:42.502Z,98116.19
2023-02-03T21:12:12.394Z,98115.25
2023-02-03T21:14:45.603Z,98117.91
2023-02-03T21:17:24.016Z,98115.63
2023-02-03T21:19:53.772Z,98110.08
2023-02-03T21:22:25.496Z,98105.02
2023-02-03T21:24:58.835Z,98104.84
2023-02-03T21:27:36.436Z,98098.55
2023-02-03T21:30:29.482Z,98092.85
2023-02-03T21:32:59.256Z,98086.52
2023-02-03T21:35:38.262Z,98079.89
2023-02-03T21:38:33.146Z,98069.42
2023-02-03T21:41:13.644Z,98070.44
2023-02-03T21:43:42.587Z,98064.73
2023-02-03T21:46:19.927Z,98062.33
2023-02-03T21:48:52.935Z,98055.59
2023-02-03T21:51:26.995Z,98049.01
2023-02-03T21:53:57.756Z,98049.52
2023-02-03T21:56:38.332Z,98046.19
2023-02-03T21:59:16.873Z,98043.61
2023-02-03T22:01:45.214Z,98040.73
2023-02-03T22:04:15.149Z,98038.91
2023-02-03T22:06:54.295Z,98037.30
2023-02-03T22:09:44.236Z,98039.36
2023-02-03T22:12:28.290Z,98041.91
2023-02-03T22:18:17.745Z,98035.36
2023-02-03T22:20:47.289Z,98033.83
2023-02-03T22:23:19.774Z,98030.23
2023-02-03T22:25:48.546Z,98034.14
2023-02-03T22:28:17.880Z,98035.23
2023-02-03T22:31:11.713Z,98030.48
2023-02-03T22:34:04.911Z,98025.54
2023-02-03T22:36:49.184Z,98024.40
2023-02-03T22:40:03.272Z,98022.13
2023-02-03T22:43:09.470Z,98013.56
2023-02-03T22:46:10.738Z,98010.05
2023-02-03T22:48:51.751Z,97991.98
2023-02-03T22:51:22.588Z,97991.48
2023-02-03T22:53:51.007Z,97992.89
2023-02-03T22:56:19.550Z,97989.50
2023-02-03T23:12:00.453Z,97960.70
2023-02-03T23:18:48.715Z,97937.11
2023-02-03T23:29:47.031Z,97923.63
2023-02-03T23:59:43.071Z,97895.21
